sensor_id;sensor_type;location;lat;lon;timestamp;temperature;humidity
22558;DHT22;11445;53.816;8.902;2023-04-24T00:01:07;12.30;99.90
22558;DHT22;11445;53.816;8.902;2023-04-24T00:03:34;12.20;99.90
22558;DHT22;11445;53.816;8.902;2023-04-24T00:06:04;12.20;99.90
22558;DHT22;11445;53.816;8.902;2023-04-24T00:08:32;12.10;99.90
22558;DHT22;11445;53.816;8.902;2023-04-24T00:10:59;12.10;99.90
22558;DHT22;11445;53.816;8.902;2023-04-24T00:13:26;12.10;99.90
22558;DHT22;11445;53.816;8.902;2023-04-24T00:15:54;12.10;99.90
22558;DHT22;11445;53.816;8.902;2023-04-24T00:18:21;12.10;99.90
22558;DHT22;11445;53.816;8.902;2023-04-24T00:20:48;12.00;99.90
22558;DHT22;11445;53.816;8.902;2023-04-24T00:23:16;12.00;99.90
22558;DHT22;11445;53.816;8.902;2023-04-24T00:25:43;12.00;99.90
22558;DHT22;11445;53.816;8.902;2023-04-24T00:28:10;12.00;99.90
22558;DHT22;11445;53.816;8.902;2023-04-24T00:30:37;11.90;99.90
22558;DHT22;11445;53.816;8.902;2023-04-24T00:33:04;12.00;99.90
22558;DHT22;11445;53.816;8.902;2023-04-24T00:35:31;12.00;99.90
22558;DHT22;11445;53.816;8.902;2023-04-24T00:37:58;12.00;99.90
22558;DHT22;11445;53.816;8.902;2023-04-24T00:40:28;12.00;99.90
22558;DHT22;11445;53.816;8.902;2023-04-24T00:42:56;11.90;99.90
22558;DHT22;11445;53.816;8.902;2023-04-24T00:45:23;12.00;99.90
22558;DHT22;11445;53.816;8.902;2023-04-24T00:47:51;12.00;99.90
22558;DHT22;11445;53.816;8.902;2023-04-24T00:50:20;12.00;99.90
22558;DHT22;11445;53.816;8.902;2023-04-24T00:52:47;12.00;99.90
22558;DHT22;11445;53.816;8.902;2023-04-24T00:55:14;12.00;99.90
22558;DHT22;11445;53.816;8.902;2023-04-24T00:57:43;12.00;99.90
22558;DHT22;11445;53.816;8.902;2023-04-24T01:00:11;12.00;99.90
22558;DHT22;11445;53.816;8.902;2023-04-24T01:02:39;11.90;99.90
22558;DHT22;11445;53.816;8.902;2023-04-24T01:05:09;11.90;99.90
22558;DHT22;11445;53.816;8.902;2023-04-24T01:07:38;11.90;99.90
22558;DHT22;11445;53.816;8.902;2023-04-24T01:10:07;11.90;99.90
22558;DHT22;11445;53.816;8.902;2023-04-24T01:12:35;11.90;99.90
22558;DHT22;11445;53.816;8.902;2023-04-24T01:15:04;11.90;99.90
22558;DHT22;11445;53.816;8.902;2023-04-24T01:17:32;11.90;99.90
22558;DHT22;11445;53.816;8.902;2023-04-24T01:19:59;11.90;99.90
22558;DHT22;11445;53.816;8.902;2023-04-24T01:22:28;11.90;99.90
22558;DHT22;11445;53.816;8.902;2023-04-24T01:24:55;11.90;99.90
22558;DHT22;11445;53.816;8.902;2023-04-24T01:27:22;11.90;99.90
22558;DHT22;11445;53.816;8.902;2023-04-24T01:29:49;11.90;99.90
22558;DHT22;11445;53.816;8.902;2023-04-24T01:32:17;11.90;99.90
22558;DHT22;11445;53.816;8.902;2023-04-24T01:34:45;11.90;99.90
22558;DHT22;11445;53.816;8.902;2023-04-24T01:37:13;11.90;99.90
22558;DHT22;11445;53.816;8.902;2023-04-24T01:39:42;11.90;99.90
22558;DHT22;11445;53.816;8.902;2023-04-24T01:42:10;11.90;99.90
22558;DHT22;11445;53.816;8.902;2023-04-24T01:44:37;11.90;99.90
22558;DHT22;11445;53.816;8.902;2023-04-24T01:47:04;11.90;99.90
22558;DHT22;11445;53.816;8.902;2023-04-24T01:49:32;11.90;99.90
22558;DHT22;11445;53.816;8.902;2023-04-24T01:51:59;11.80;99.90
22558;DHT22;11445;53.816;8.902;2023-04-24T01:54:26;11.80;99.90
22558;DHT22;11445;53.816;8.902;2023-04-24T01:56:55;11.80;99.90
22558;DHT22;11445;53.816;8.902;2023-04-24T01:59:23;11.70;99.90
22558;DHT22;11445;53.816;8.902;2023-04-24T02:01:51;11.70;99.90
22558;DHT22;11445;53.816;8.902;2023-04-24T02:04:18;11.60;99.90
22558;DHT22;11445;53.816;8.902;2023-04-24T02:06:45;11.50;99.90
22558;DHT22;11445;53.816;8.902;2023-04-24T02:09:12;11.40;99.90
22558;DHT22;11445;53.816;8.902;2023-04-24T02:11:39;11.40;99.90
22558;DHT22;11445;53.816;8.902;2023-04-24T02:14:08;11.30;99.90
22558;DHT22;11445;53.816;8.902;2023-04-24T02:16:35;11.30;99.90
22558;DHT22;11445;53.816;8.902;2023-04-24T02:19:02;11.30;99.90
22558;DHT22;11445;53.816;8.902;2023-04-24T02:21:30;11.20;99.90
22558;DHT22;11445;53.816;8.902;2023-04-24T02:23:57;11.20;99.90
22558;DHT22;11445;53.816;8.902;2023-04-24T02:26:24;11.10;99.90
22558;DHT22;11445;53.816;8.902;2023-04-24T02:28:52;11.10;99.90
22558;DHT22;11445;53.816;8.902;2023-04-24T02:31:20;11.10;99.90
22558;DHT22;11445;53.816;8.902;2023-04-24T02:33:47;11.20;99.90
22558;DHT22;11445;53.816;8.902;2023-04-24T02:36:14;11.20;99.90
22558;DHT22;11445;53.816;8.902;2023-04-24T02:38:41;11.20;99.90
22558;DHT22;11445;53.816;8.902;2023-04-24T02:41:08;11.10;99.90
22558;DHT22;11445;53.816;8.902;2023-04-24T02:43:35;11.10;99.90
22558;DHT22;11445;53.816;8.902;2023-04-24T02:46:02;11.10;99.90
22558;DHT22;11445;53.816;8.902;2023-04-24T02:48:31;11.10;99.90
22558;DHT22;11445;53.816;8.902;2023-04-24T02:50:58;11.10;99.90
22558;DHT22;11445;53.816;8.902;2023-04-24T02:53:25;11.10;99.90
22558;DHT22;11445;53.816;8.902;2023-04-24T02:55:52;11.20;99.90
22558;DHT22;11445;53.816;8.902;2023-04-24T02:58:19;11.10;99.90
22558;DHT22;11445;53.816;8.902;2023-04-24T03:00:46;11.10;99.90
22558;DHT22;11445;53.816;8.902;2023-04-24T03:03:14;11.10;99.90
22558;DHT22;11445;53.816;8.902;2023-04-24T03:05:42;11.10;99.90
22558;DHT22;11445;53.816;8.902;2023-04-24T03:08:09;11.20;99.90
22558;DHT22;11445;53.816;8.902;2023-04-24T03:10:37;11.20;99.90
22558;DHT22;11445;53.816;8.902;2023-04-24T03:13:04;11.20;99.90
22558;DHT22;11445;53.816;8.902;2023-04-24T03:15:31;11.20;99.90
22558;DHT22;11445;53.816;8.902;2023-04-24T03:17:58;11.20;99.90
22558;DHT22;11445;53.816;8.902;2023-04-24T03:20:26;11.20;99.90
22558;DHT22;11445;53.816;8.902;2023-04-24T03:22:54;11.20;99.90
22558;DHT22;11445;53.816;8.902;2023-04-24T03:25:22;11.20;99.90
22558;DHT22;11445;53.816;8.902;2023-04-24T03:27:49;11.30;99.90
22558;DHT22;11445;53.816;8.902;2023-04-24T03:30:16;11.30;99.90
22558;DHT22;11445;53.816;8.902;2023-04-24T03:32:43;11.30;99.90
22558;DHT22;11445;53.816;8.902;2023-04-24T03:35:10;11.30;99.90
22558;DHT22;11445;53.816;8.902;2023-04-24T03:37:37;11.30;99.90
22558;DHT22;11445;53.816;8.902;2023-04-24T03:40:07;11.30;99.90
22558;DHT22;11445;53.816;8.902;2023-04-24T03:42:34;11.30;99.90
22558;DHT22;11445;53.816;8.902;2023-04-24T03:45:01;11.30;99.90
22558;DHT22;11445;53.816;8.902;2023-04-24T03:47:28;11.30;99.90
22558;DHT22;11445;53.816;8.902;2023-04-24T03:49:55;11.30;99.90
22558;DHT22;11445;53.816;8.902;2023-04-24T03:52:22;11.30;99.90
22558;DHT22;11445;53.816;8.902;2023-04-24T03:54:49;11.20;99.90
22558;DHT22;11445;53.816;8.902;2023-04-24T03:57:18;11.20;99.90
22558;DHT22;11445;53.816;8.902;2023-04-24T03:59:45;11.20;99.90
22558;DHT22;11445;53.816;8.902;2023-04-24T04:02:12;11.10;99.90
22558;DHT22;11445;53.816;8.902;2023-04-24T04:04:39;11.10;99.90
22558;DHT22;11445;53.816;8.902;2023-04-24T04:07:06;11.10;99.90
22558;DHT22;11445;53.816;8.902;2023-04-24T04:09:34;11.10;99.90
22558;DHT22;11445;53.816;8.902;2023-04-24T04:12:01;11.00;99.90
22558;DHT22;11445;53.816;8.902;2023-04-24T04:14:29;11.00;99.90
22558;DHT22;11445;53.816;8.902;2023-04-24T04:16:56;11.00;99.90
22558;DHT22;11445;53.816;8.902;2023-04-24T04:19:23;11.00;99.90
22558;DHT22;11445;53.816;8.902;2023-04-24T04:21:50;11.00;99.90
22558;DHT22;11445;53.816;8.902;2023-04-24T04:24:19;11.00;99.90
22558;DHT22;11445;53.816;8.902;2023-04-24T04:26:48;11.00;99.90
22558;DHT22;11445;53.816;8.902;2023-04-24T04:29:16;10.90;99.90
22558;DHT22;11445;53.816;8.902;2023-04-24T04:31:45;10.90;99.90
22558;DHT22;11445;53.816;8.902;2023-04-24T04:34:12;10.90;99.90
22558;DHT22;11445;53.816;8.902;2023-04-24T04:36:40;10.90;99.90
22558;DHT22;11445;53.816;8.902;2023-04-24T04:39:07;10.90;99.90
22558;DHT22;11445;53.816;8.902;2023-04-24T04:41:34;10.90;99.90
22558;DHT22;11445;53.816;8.902;2023-04-24T04:44:01;10.90;99.90
22558;DHT22;11445;53.816;8.902;2023-04-24T04:46:30;10.90;99.90
22558;DHT22;11445;53.816;8.902;2023-04-24T04:49:01;10.90;99.90
22558;DHT22;11445;53.816;8.902;2023-04-24T04:51:28;10.90;99.90
22558;DHT22;11445;53.816;8.902;2023-04-24T04:53:56;10.90;99.90
22558;DHT22;11445;53.816;8.902;2023-04-24T04:56:23;10.90;99.90
22558;DHT22;11445;53.816;8.902;2023-04-24T04:58:51;10.90;99.90
22558;DHT22;11445;53.816;8.902;2023-04-24T05:01:18;10.90;99.90
22558;DHT22;11445;53.816;8.902;2023-04-24T05:03:45;10.90;99.90
22558;DHT22;11445;53.816;8.902;2023-04-24T05:06:13;10.90;99.90
22558;DHT22;11445;53.816;8.902;2023-04-24T05:08:40;11.00;99.90
22558;DHT22;11445;53.816;8.902;2023-04-24T05:11:08;11.00;99.90
22558;DHT22;11445;53.816;8.902;2023-04-24T05:13:35;11.00;99.90
22558;DHT22;11445;53.816;8.902;2023-04-24T05:16:02;11.00;99.90
22558;DHT22;11445;53.816;8.902;2023-04-24T05:18:29;11.00;99.90
22558;DHT22;11445;53.816;8.902;2023-04-24T05:20:56;11.00;99.90
22558;DHT22;11445;53.816;8.902;2023-04-24T05:23:25;11.00;99.90
22558;DHT22;11445;53.816;8.902;2023-04-24T05:25:52;11.00;99.90
22558;DHT22;11445;53.816;8.902;2023-04-24T05:28:19;11.00;99.90
22558;DHT22;11445;53.816;8.902;2023-04-24T05:30:46;11.00;99.90
22558;DHT22;11445;53.816;8.902;2023-04-24T05:33:13;11.00;99.90
22558;DHT22;11445;53.816;8.902;2023-04-24T05:35:40;11.00;99.90
22558;DHT22;11445;53.816;8.902;2023-04-24T05:38:11;11.00;99.90
22558;DHT22;11445;53.816;8.902;2023-04-24T05:40:40;11.00;99.90
22558;DHT22;11445;53.816;8.902;2023-04-24T05:43:07;11.00;99.90
22558;DHT22;11445;53.816;8.902;2023-04-24T05:45:34;11.00;99.90
22558;DHT22;11445;53.816;8.902;2023-04-24T05:48:02;11.00;99.90
22558;DHT22;11445;53.816;8.902;2023-04-24T05:50:29;11.00;99.90
22558;DHT22;11445;53.816;8.902;2023-04-24T05:52:56;11.00;99.90
22558;DHT22;11445;53.816;8.902;2023-04-24T05:55:24;11.00;99.90
22558;DHT22;11445;53.816;8.902;2023-04-24T05:57:52;11.00;99.90
22558;DHT22;11445;53.816;8.902;2023-04-24T06:00:19;11.00;99.90
22558;DHT22;11445;53.816;8.902;2023-04-24T06:02:47;11.00;99.90
22558;DHT22;11445;53.816;8.902;2023-04-24T06:05:14;11.00;99.90
22558;DHT22;11445;53.816;8.902;2023-04-24T06:07:41;11.00;99.90
22558;DHT22;11445;53.816;8.902;2023-04-24T06:10:09;11.00;99.90
22558;DHT22;11445;53.816;8.902;2023-04-24T06:12:36;11.00;99.90
22558;DHT22;11445;53.816;8.902;2023-04-24T06:15:06;11.00;99.90
22558;DHT22;11445;53.816;8.902;2023-04-24T06:17:33;11.00;99.90
22558;DHT22;11445;53.816;8.902;2023-04-24T06:20:00;11.00;99.90
22558;DHT22;11445;53.816;8.902;2023-04-24T06:22:30;11.00;99.90
22558;DHT22;11445;53.816;8.902;2023-04-24T06:24:57;11.10;99.90
22558;DHT22;11445;53.816;8.902;2023-04-24T06:27:24;11.10;99.90
22558;DHT22;11445;53.816;8.902;2023-04-24T06:29:51;11.10;99.90
22558;DHT22;11445;53.816;8.902;2023-04-24T06:32:22;11.10;99.90
22558;DHT22;11445;53.816;8.902;2023-04-24T06:34:50;11.10;99.90
22558;DHT22;11445;53.816;8.902;2023-04-24T06:37:18;11.10;99.90
22558;DHT22;11445;53.816;8.902;2023-04-24T06:39:45;11.10;99.90
22558;DHT22;11445;53.816;8.902;2023-04-24T06:42:12;11.10;99.90
22558;DHT22;11445;53.816;8.902;2023-04-24T06:44:39;11.00;99.90
22558;DHT22;11445;53.816;8.902;2023-04-24T06:47:07;11.10;99.90
22558;DHT22;11445;53.816;8.902;2023-04-24T06:49:37;11.10;99.90
22558;DHT22;11445;53.816;8.902;2023-04-24T06:52:04;11.10;99.90
22558;DHT22;11445;53.816;8.902;2023-04-24T06:54:32;11.10;99.90
22558;DHT22;11445;53.816;8.902;2023-04-24T06:56:59;11.10;99.90
22558;DHT22;11445;53.816;8.902;2023-04-24T06:59:28;11.10;99.90
22558;DHT22;11445;53.816;8.902;2023-04-24T07:01:55;11.10;99.90
22558;DHT22;11445;53.816;8.902;2023-04-24T07:04:22;11.10;99.90
22558;DHT22;11445;53.816;8.902;2023-04-24T07:06:52;11.20;99.90
22558;DHT22;11445;53.816;8.902;2023-04-24T07:09:21;11.20;99.90
22558;DHT22;11445;53.816;8.902;2023-04-24T07:11:49;11.20;99.90
22558;DHT22;11445;53.816;8.902;2023-04-24T07:14:17;11.20;99.90
22558;DHT22;11445;53.816;8.902;2023-04-24T07:16:44;11.20;99.90
22558;DHT22;11445;53.816;8.902;2023-04-24T07:19:11;11.20;99.90
22558;DHT22;11445;53.816;8.902;2023-04-24T07:21:38;11.30;99.90
22558;DHT22;11445;53.816;8.902;2023-04-24T07:24:07;11.30;99.90
22558;DHT22;11445;53.816;8.902;2023-04-24T07:26:37;11.30;99.90
22558;DHT22;11445;53.816;8.902;2023-04-24T07:29:05;11.30;99.90
22558;DHT22;11445;53.816;8.902;2023-04-24T07:31:32;11.30;99.90
22558;DHT22;11445;53.816;8.902;2023-04-24T07:33:59;11.40;99.90
22558;DHT22;11445;53.816;8.902;2023-04-24T07:36:26;11.50;99.90
22558;DHT22;11445;53.816;8.902;2023-04-24T07:38:54;11.60;99.90
22558;DHT22;11445;53.816;8.902;2023-04-24T07:41:23;11.70;99.90
22558;DHT22;11445;53.816;8.902;2023-04-24T07:43:50;11.80;99.90
22558;DHT22;11445;53.816;8.902;2023-04-24T07:46:18;11.80;99.90
22558;DHT22;11445;53.816;8.902;2023-04-24T07:48:45;11.80;99.90
22558;DHT22;11445;53.816;8.902;2023-04-24T07:51:14;11.80;99.90
22558;DHT22;11445;53.816;8.902;2023-04-24T07:53:41;11.80;99.90
22558;DHT22;11445;53.816;8.902;2023-04-24T07:56:08;11.80;99.90
22558;DHT22;11445;53.816;8.902;2023-04-24T07:58:36;11.80;99.90
22558;DHT22;11445;53.816;8.902;2023-04-24T08:01:03;11.90;99.90
22558;DHT22;11445;53.816;8.902;2023-04-24T08:03:30;11.90;99.90
22558;DHT22;11445;53.816;8.902;2023-04-24T08:05:57;11.90;99.90
22558;DHT22;11445;53.816;8.902;2023-04-24T08:08:24;11.90;99.90
22558;DHT22;11445;53.816;8.902;2023-04-24T08:10:52;11.80;99.90
22558;DHT22;11445;53.816;8.902;2023-04-24T08:13:19;11.90;99.90
22558;DHT22;11445;53.816;8.902;2023-04-24T08:15:47;11.80;99.90
22558;DHT22;11445;53.816;8.902;2023-04-24T08:18:14;11.80;99.90
22558;DHT22;11445;53.816;8.902;2023-04-24T08:20:41;11.80;99.90
22558;DHT22;11445;53.816;8.902;2023-04-24T08:23:08;11.80;99.90
22558;DHT22;11445;53.816;8.902;2023-04-24T08:25:35;11.70;99.90
22558;DHT22;11445;53.816;8.902;2023-04-24T08:28:03;11.70;99.90
22558;DHT22;11445;53.816;8.902;2023-04-24T08:30:30;11.70;99.90
22558;DHT22;11445;53.816;8.902;2023-04-24T08:33:00;11.70;99.90
22558;DHT22;11445;53.816;8.902;2023-04-24T08:35:27;11.70;99.90
22558;DHT22;11445;53.816;8.902;2023-04-24T08:37:54;11.70;99.90
22558;DHT22;11445;53.816;8.902;2023-04-24T08:40:26;11.70;99.90
22558;DHT22;11445;53.816;8.902;2023-04-24T08:42:54;11.70;99.90
22558;DHT22;11445;53.816;8.902;2023-04-24T08:45:23;11.80;99.90
22558;DHT22;11445;53.816;8.902;2023-04-24T08:47:52;11.80;99.90
22558;DHT22;11445;53.816;8.902;2023-04-24T08:50:21;11.80;99.90
22558;DHT22;11445;53.816;8.902;2023-04-24T08:52:50;11.70;99.90
22558;DHT22;11445;53.816;8.902;2023-04-24T08:55:19;11.70;99.90
22558;DHT22;11445;53.816;8.902;2023-04-24T08:57:50;11.70;99.90
22558;DHT22;11445;53.816;8.902;2023-04-24T09:00:19;11.70;99.90
22558;DHT22;11445;53.816;8.902;2023-04-24T09:02:49;11.70;99.90
22558;DHT22;11445;53.816;8.902;2023-04-24T09:05:16;11.80;99.90
22558;DHT22;11445;53.816;8.902;2023-04-24T09:07:50;11.90;99.90
22558;DHT22;11445;53.816;8.902;2023-04-24T09:10:20;11.90;99.90
22558;DHT22;11445;53.816;8.902;2023-04-24T09:12:48;11.90;99.90
22558;DHT22;11445;53.816;8.902;2023-04-24T09:15:17;12.00;99.90
22558;DHT22;11445;53.816;8.902;2023-04-24T09:17:44;11.90;99.90
22558;DHT22;11445;53.816;8.902;2023-04-24T09:20:11;11.90;99.90
22558;DHT22;11445;53.816;8.902;2023-04-24T09:22:38;11.90;99.90
22558;DHT22;11445;53.816;8.902;2023-04-24T09:25:08;11.80;99.90
22558;DHT22;11445;53.816;8.902;2023-04-24T09:27:41;11.70;99.90
22558;DHT22;11445;53.816;8.902;2023-04-24T09:30:09;11.70;99.90
22558;DHT22;11445;53.816;8.902;2023-04-24T09:32:36;11.60;99.90
22558;DHT22;11445;53.816;8.902;2023-04-24T09:35:09;11.60;99.90
22558;DHT22;11445;53.816;8.902;2023-04-24T09:37:38;11.50;99.90
22558;DHT22;11445;53.816;8.902;2023-04-24T09:40:16;11.50;99.90
22558;DHT22;11445;53.816;8.902;2023-04-24T09:42:46;11.50;99.90
22558;DHT22;11445;53.816;8.902;2023-04-24T09:45:18;11.50;99.90
22558;DHT22;11445;53.816;8.902;2023-04-24T09:47:45;11.50;99.90
22558;DHT22;11445;53.816;8.902;2023-04-24T09:50:14;11.50;99.90
22558;DHT22;11445;53.816;8.902;2023-04-24T09:52:43;11.50;99.90
22558;DHT22;11445;53.816;8.902;2023-04-24T09:55:18;11.60;99.90
22558;DHT22;11445;53.816;8.902;2023-04-24T09:57:57;11.60;99.90
22558;DHT22;11445;53.816;8.902;2023-04-24T10:00:27;11.70;99.90
22558;DHT22;11445;53.816;8.902;2023-04-24T10:03:01;11.70;99.90
22558;DHT22;11445;53.816;8.902;2023-04-24T10:05:31;11.70;99.90
22558;DHT22;11445;53.816;8.902;2023-04-24T10:08:01;11.70;99.90
22558;DHT22;11445;53.816;8.902;2023-04-24T10:10:31;11.70;99.90
22558;DHT22;11445;53.816;8.902;2023-04-24T10:12:59;11.80;99.90
22558;DHT22;11445;53.816;8.902;2023-04-24T10:15:27;11.80;99.90
22558;DHT22;11445;53.816;8.902;2023-04-24T10:17:54;11.80;99.90
22558;DHT22;11445;53.816;8.902;2023-04-24T10:20:23;11.80;99.90
22558;DHT22;11445;53.816;8.902;2023-04-24T10:22:52;11.80;99.90
22558;DHT22;11445;53.816;8.902;2023-04-24T10:25:20;11.80;99.90
22558;DHT22;11445;53.816;8.902;2023-04-24T10:27:50;11.80;99.90
22558;DHT22;11445;53.816;8.902;2023-04-24T10:30:19;11.80;99.90
22558;DHT22;11445;53.816;8.902;2023-04-24T10:32:46;11.80;99.90
22558;DHT22;11445;53.816;8.902;2023-04-24T10:35:14;11.80;99.90
22558;DHT22;11445;53.816;8.902;2023-04-24T10:37:44;11.80;99.90
22558;DHT22;11445;53.816;8.902;2023-04-24T10:40:17;11.90;99.90
22558;DHT22;11445;53.816;8.902;2023-04-24T10:42:49;11.90;99.90
22558;DHT22;11445;53.816;8.902;2023-04-24T10:45:19;11.80;99.90
22558;DHT22;11445;53.816;8.902;2023-04-24T10:48:01;11.80;99.90
22558;DHT22;11445;53.816;8.902;2023-04-24T10:50:41;11.80;99.90
22558;DHT22;11445;53.816;8.902;2023-04-24T10:53:15;11.70;99.90
22558;DHT22;11445;53.816;8.902;2023-04-24T10:55:44;11.60;99.90
22558;DHT22;11445;53.816;8.902;2023-04-24T10:58:13;11.60;99.90
22558;DHT22;11445;53.816;8.902;2023-04-24T11:00:42;11.60;99.90
22558;DHT22;11445;53.816;8.902;2023-04-24T11:03:23;11.60;99.90
22558;DHT22;11445;53.816;8.902;2023-04-24T11:05:53;11.60;99.90
22558;DHT22;11445;53.816;8.902;2023-04-24T11:08:24;11.60;99.90
22558;DHT22;11445;53.816;8.902;2023-04-24T11:10:57;11.60;99.90
22558;DHT22;11445;53.816;8.902;2023-04-24T11:14:00;11.60;99.90
22558;DHT22;11445;53.816;8.902;2023-04-24T11:16:20;11.60;99.90
22558;DHT22;11445;53.816;8.902;2023-04-24T11:18:51;11.70;99.90
22558;DHT22;11445;53.816;8.902;2023-04-24T11:21:20;11.70;99.90
22558;DHT22;11445;53.816;8.902;2023-04-24T11:23:47;11.70;99.90
22558;DHT22;11445;53.816;8.902;2023-04-24T11:26:18;11.80;99.90
22558;DHT22;11445;53.816;8.902;2023-04-24T11:28:48;11.70;99.90
22558;DHT22;11445;53.816;8.902;2023-04-24T11:31:34;11.70;99.90
22558;DHT22;11445;53.816;8.902;2023-04-24T11:34:08;11.70;99.90
22558;DHT22;11445;53.816;8.902;2023-04-24T11:36:36;11.70;99.90
22558;DHT22;11445;53.816;8.902;2023-04-24T11:39:04;11.70;99.90
22558;DHT22;11445;53.816;8.902;2023-04-24T11:41:33;11.70;99.90
22558;DHT22;11445;53.816;8.902;2023-04-24T11:44:02;11.60;99.90
22558;DHT22;11445;53.816;8.902;2023-04-24T11:46:30;11.60;99.90
22558;DHT22;11445;53.816;8.902;2023-04-24T11:48:58;11.60;99.90
22558;DHT22;11445;53.816;8.902;2023-04-24T11:51:26;11.70;99.90
22558;DHT22;11445;53.816;8.902;2023-04-24T11:53:54;11.70;99.90
22558;DHT22;11445;53.816;8.902;2023-04-24T11:56:22;11.60;99.90
22558;DHT22;11445;53.816;8.902;2023-04-24T11:58:52;11.50;99.90
22558;DHT22;11445;53.816;8.902;2023-04-24T12:01:20;11.50;99.90
22558;DHT22;11445;53.816;8.902;2023-04-24T12:03:49;11.60;99.90
22558;DHT22;11445;53.816;8.902;2023-04-24T12:06:16;11.60;99.90
22558;DHT22;11445;53.816;8.902;2023-04-24T12:08:46;11.50;99.90
22558;DHT22;11445;53.816;8.902;2023-04-24T12:11:16;11.50;99.90
22558;DHT22;11445;53.816;8.902;2023-04-24T12:13:44;11.50;99.90
22558;DHT22;11445;53.816;8.902;2023-04-24T12:16:12;11.50;99.90
22558;DHT22;11445;53.816;8.902;2023-04-24T12:18:45;11.50;99.90
22558;DHT22;11445;53.816;8.902;2023-04-24T12:21:18;11.60;99.90
22558;DHT22;11445;53.816;8.902;2023-04-24T12:23:46;11.50;99.90
22558;DHT22;11445;53.816;8.902;2023-04-24T12:26:16;11.50;99.90
22558;DHT22;11445;53.816;8.902;2023-04-24T12:28:47;11.40;99.90
22558;DHT22;11445;53.816;8.902;2023-04-24T12:31:15;11.40;99.90
22558;DHT22;11445;53.816;8.902;2023-04-24T12:33:43;11.30;99.90
22558;DHT22;11445;53.816;8.902;2023-04-24T12:36:11;11.10;99.90
22558;DHT22;11445;53.816;8.902;2023-04-24T12:38:39;11.00;99.90
22558;DHT22;11445;53.816;8.902;2023-04-24T12:41:11;11.00;99.90
22558;DHT22;11445;53.816;8.902;2023-04-24T12:43:51;10.90;99.90
22558;DHT22;11445;53.816;8.902;2023-04-24T12:46:18;10.80;99.90
22558;DHT22;11445;53.816;8.902;2023-04-24T12:48:46;10.80;99.90
22558;DHT22;11445;53.816;8.902;2023-04-24T12:51:13;10.80;99.90
22558;DHT22;11445;53.816;8.902;2023-04-24T12:53:40;10.80;99.90
22558;DHT22;11445;53.816;8.902;2023-04-24T12:56:07;10.80;99.90
22558;DHT22;11445;53.816;8.902;2023-04-24T12:58:35;10.70;99.90
22558;DHT22;11445;53.816;8.902;2023-04-24T13:01:02;10.60;99.90
22558;DHT22;11445;53.816;8.902;2023-04-24T13:03:29;10.60;99.90
22558;DHT22;11445;53.816;8.902;2023-04-24T13:05:57;10.50;99.90
22558;DHT22;11445;53.816;8.902;2023-04-24T13:08:24;10.40;99.90
22558;DHT22;11445;53.816;8.902;2023-04-24T13:10:51;10.50;99.90
22558;DHT22;11445;53.816;8.902;2023-04-24T13:13:19;10.40;99.90
22558;DHT22;11445;53.816;8.902;2023-04-24T13:15:46;10.40;99.90
22558;DHT22;11445;53.816;8.902;2023-04-24T13:18:13;10.40;99.90
22558;DHT22;11445;53.816;8.902;2023-04-24T13:20:40;10.40;99.90
22558;DHT22;11445;53.816;8.902;2023-04-24T13:23:09;10.30;99.90
22558;DHT22;11445;53.816;8.902;2023-04-24T13:25:36;10.30;99.90
22558;DHT22;11445;53.816;8.902;2023-04-24T13:28:04;10.30;99.90
22558;DHT22;11445;53.816;8.902;2023-04-24T13:30:31;10.20;99.90
22558;DHT22;11445;53.816;8.902;2023-04-24T13:32:58;10.20;99.90
22558;DHT22;11445;53.816;8.902;2023-04-24T13:35:26;10.10;99.90
22558;DHT22;11445;53.816;8.902;2023-04-24T13:37:52;10.20;99.90
22558;DHT22;11445;53.816;8.902;2023-04-24T13:40:21;10.10;99.90
22558;DHT22;11445;53.816;8.902;2023-04-24T13:42:48;10.00;99.90
22558;DHT22;11445;53.816;8.902;2023-04-24T13:45:15;10.00;99.90
22558;DHT22;11445;53.816;8.902;2023-04-24T13:47:42;10.00;99.90
22558;DHT22;11445;53.816;8.902;2023-04-24T13:50:10;10.00;99.90
22558;DHT22;11445;53.816;8.902;2023-04-24T13:52:37;10.00;99.90
22558;DHT22;11445;53.816;8.902;2023-04-24T13:55:05;9.90;99.90
22558;DHT22;11445;53.816;8.902;2023-04-24T13:57:33;9.80;99.90
22558;DHT22;11445;53.816;8.902;2023-04-24T14:00:01;9.80;99.90
22558;DHT22;11445;53.816;8.902;2023-04-24T14:02:29;9.80;99.90
22558;DHT22;11445;53.816;8.902;2023-04-24T14:04:56;9.70;99.90
22558;DHT22;11445;53.816;8.902;2023-04-24T14:07:23;9.70;99.90
22558;DHT22;11445;53.816;8.902;2023-04-24T14:09:51;9.70;99.90
22558;DHT22;11445;53.816;8.902;2023-04-24T14:12:18;9.50;99.90
22558;DHT22;11445;53.816;8.902;2023-04-24T14:14:48;9.40;99.90
22558;DHT22;11445;53.816;8.902;2023-04-24T14:17:15;9.40;99.90
22558;DHT22;11445;53.816;8.902;2023-04-24T14:19:42;9.40;99.90
22558;DHT22;11445;53.816;8.902;2023-04-24T14:22:09;9.30;99.90
22558;DHT22;11445;53.816;8.902;2023-04-24T14:24:36;9.30;99.90
22558;DHT22;11445;53.816;8.902;2023-04-24T14:27:03;9.30;99.90
22558;DHT22;11445;53.816;8.902;2023-04-24T14:29:30;9.30;99.90
22558;DHT22;11445;53.816;8.902;2023-04-24T14:31:59;9.30;99.90
22558;DHT22;11445;53.816;8.902;2023-04-24T14:34:26;9.40;99.90
22558;DHT22;11445;53.816;8.902;2023-04-24T14:36:53;9.40;99.90
22558;DHT22;11445;53.816;8.902;2023-04-24T14:39:20;9.40;99.90
22558;DHT22;11445;53.816;8.902;2023-04-24T14:41:47;9.30;99.90
22558;DHT22;11445;53.816;8.902;2023-04-24T14:44:14;9.20;99.90
22558;DHT22;11445;53.816;8.902;2023-04-24T14:46:41;9.20;99.90
22558;DHT22;11445;53.816;8.902;2023-04-24T14:49:10;9.10;99.90
22558;DHT22;11445;53.816;8.902;2023-04-24T14:51:38;9.20;99.90
22558;DHT22;11445;53.816;8.902;2023-04-24T14:54:06;9.20;99.90
22558;DHT22;11445;53.816;8.902;2023-04-24T14:56:33;9.20;99.90
22558;DHT22;11445;53.816;8.902;2023-04-24T14:59:00;9.20;99.90
22558;DHT22;11445;53.816;8.902;2023-04-24T15:01:27;9.10;99.90
22558;DHT22;11445;53.816;8.902;2023-04-24T15:03:54;9.10;99.90
22558;DHT22;11445;53.816;8.902;2023-04-24T15:06:23;9.00;99.90
22558;DHT22;11445;53.816;8.902;2023-04-24T15:08:50;9.10;99.90
22558;DHT22;11445;53.816;8.902;2023-04-24T15:11:17;9.10;99.90
22558;DHT22;11445;53.816;8.902;2023-04-24T15:13:45;9.00;99.90
22558;DHT22;11445;53.816;8.902;2023-04-24T15:16:12;8.90;99.90
22558;DHT22;11445;53.816;8.902;2023-04-24T15:18:39;9.00;99.90
22558;DHT22;11445;53.816;8.902;2023-04-24T15:21:07;9.00;99.90
22558;DHT22;11445;53.816;8.902;2023-04-24T15:23:35;8.90;99.90
22558;DHT22;11445;53.816;8.902;2023-04-24T15:26:02;9.00;99.90
22558;DHT22;11445;53.816;8.902;2023-04-24T15:28:29;8.90;99.90
22558;DHT22;11445;53.816;8.902;2023-04-24T15:30:56;8.80;99.90
22558;DHT22;11445;53.816;8.902;2023-04-24T15:33:23;8.80;99.90
22558;DHT22;11445;53.816;8.902;2023-04-24T15:35:51;8.80;99.90
22558;DHT22;11445;53.816;8.902;2023-04-24T15:38:18;8.80;99.90